Impacts METAR Board
IDs:

KMEM - Memphis Intl, TN, US

Updated at: 0700 UTC 24 Jan 2019
Potential Impact None Slight Moderate High
Time 23/19Z 23/20Z 23/21Z 23/22Z 23/23Z 24/00Z 24/01Z 24/02Z 24/03Z 24/04Z 24/05Z 24/06Z 24/07Z
Temp37 36 35 35 34 34 33 32 32 32 31 31 30
Dewpt36 34 32 31 31 29 29 27 27 25 24 24 23
Altim29.84 29.88 29.89 29.90 29.90 29.93 29.94 29.96 29.95 29.97 30.00 30.00 30.01
VIS6 6 8 10 10 10 10 10 10 10 10 10 10
CIG8 9 13 14 14 16 16 19 21 24 22 25 24
CoverOVCOVCOVCOVCOVCOVCOVCOVCOVCOVCOVCOVCOVC
FltCatIFRIFRMVFRMVFRMVFRMVFRMVFRMVFRMVFRMVFRMVFRMVFRMVFR
WXBRBR----------------------
WDir320320330320320310320320320320310310340
WSpd12 11 9 10 15 12 11 11 11 13 11 12 8
WGst17 17 -- -- 19 17 -- -- -- -- -- -- --
Raw hourly METARs
KMEM 231854Z 32012G17KT 6SM BR BKN008 BKN013 OVC020 03/02 A2984 RMK AO2 RAE54 SLP103 P0004 T00280022 $
KMEM 231954Z 32011G17KT 6SM BR OVC009 02/01 A2988 RMK AO2 CIG 008V014 PRESRR SLP116 T00220011 $
KMEM 232054Z 33009KT 8SM OVC013 02/00 A2989 RMK AO2 SLP121 60004 T00170000 53013 $
KMEM 232154Z 32010KT 10SM OVC014 02/M01 A2990 RMK AO2 SLP124 T00171006 $
KMEM 232254Z 32015G19KT 10SM OVC014 01/M01 A2990 RMK AO2 SLP125 T00111006 $
KMEM 232354Z 31012G17KT 10SM OVC016 01/M02 A2993 RMK AO2 SLP134 60004 T00111017 10033 20011 53012 $
KMEM 240054Z 32011KT 10SM OVC016 01/M02 A2994 RMK AO2 SLP138 T00061017 $
KMEM 240154Z 32011KT 10SM OVC019 00/M03 A2996 RMK AO2 SLP144 T00001028 $
KMEM 240254Z 32011KT 10SM OVC021 00/M03 A2995 RMK AO2 SLP142 T00001028 50008 $
KMEM 240354Z 32013KT 10SM OVC024 00/M04 A2997 RMK AO2 SLP151 T00001039 $
KMEM 240454Z 31011KT 10SM OVC022 M01/M04 A3000 RMK AO2 SLP160 T10061044 $
KMEM 240554Z 31012KT 10SM OVC025 M01/M04 A3000 RMK AO2 SLP160 T10061044 10011 21006 401281006 51017 $
KMEM 240654Z 34008KT 10SM OVC024 M01/M05 A3001 RMK AO2 SLP165 T10111050 $



Page loaded:  07:28 UTC  |   11:28 PM Pacific  |   12:28 AM Mountain  |   01:28 AM Central  |   02:28 AM Eastern

 

ADVISORIES

FORECASTS

FORECASTS

OBSERVATIONS

USER TOOLS

ABOUT US